Time;durP1;ratioP1;P1;durP2;ratioP2;P2;SDS_P1;SDS_P2;PMS_P1;PMS_P2;Temp;Humidity;BMP_temperature;BMP_pressure;BME280_temperature;BME280_humidity;BME280_pressure;Samples;Min_cycle;Max_cycle;Signal;HPM_P1;HPM_P2
2022/06/14 00:03:25;;;;;;;6.68;1.90;;;18.90;99.90;;;;;;4989658;28;20088;-86
2022/06/14 00:05:51;;;;;;;2.78;1.80;;;18.80;99.90;;;;;;4988044;28;20026;-85
2022/06/14 00:08:17;;;;;;;3.40;1.75;;;18.60;99.90;;;;;;4990685;28;20376;-86
2022/06/14 00:10:43;;;;;;;2.67;1.88;;;18.60;99.90;;;;;;4989432;28;20035;-85
2022/06/14 00:13:09;;;;;;;3.67;1.88;;;18.40;99.90;;;;;;4992535;28;20030;-85
2022/06/14 00:15:35;;;;;;;3.40;1.80;;;18.60;99.90;;;;;;4991290;28;20030;-86
2022/06/14 00:18:01;;;;;;;3.97;2.10;;;18.40;99.90;;;;;;4990531;28;20022;-86
2022/06/14 00:20:27;;;;;;;4.60;2.00;;;18.50;99.90;;;;;;4989764;28;20031;-85
2022/06/14 00:22:52;;;;;;;4.95;1.92;;;18.40;99.90;;;;;;4987421;28;20027;-86
2022/06/14 00:25:31;;;;;;;3.83;2.10;;;18.20;99.90;;;;;;4989243;28;20030;-85
2022/06/14 00:27:56;;;;;;;3.30;2.13;;;18.10;99.90;;;;;;4987579;28;20031;-85
2022/06/14 00:30:23;;;;;;;3.10;1.88;;;18.20;99.90;;;;;;4990696;28;20037;-86
2022/06/14 00:32:49;;;;;;;3.42;1.90;;;18.20;99.90;;;;;;4988874;28;20368;-85
2022/06/14 00:35:15;;;;;;;3.85;2.00;;;18.00;99.90;;;;;;4988429;28;20057;-85
2022/06/14 00:37:41;;;;;;;3.05;2.03;;;18.00;99.90;;;;;;4990593;28;20038;-85
2022/06/14 00:40:10;;;;;;;3.53;2.00;;;18.10;99.90;;;;;;4992853;28;20030;-86
2022/06/14 00:42:36;;;;;;;4.10;1.70;;;18.10;99.90;;;;;;4991260;28;20498;-86
2022/06/14 00:45:13;;;;;;;3.42;2.22;;;18.10;99.90;;;;;;4990655;28;20129;-86
2022/06/14 00:47:55;;;;;;;4.63;2.22;;;18.00;99.90;;;;;;4990712;28;20034;-86
2022/06/14 00:50:43;;;;;;;3.17;2.17;;;17.90;99.90;;;;;;4991903;28;20023;-85
2022/06/14 00:53:32;;;;;;;3.72;1.88;;;18.00;99.90;;;;;;4993947;28;20046;-85
2022/06/14 00:56:04;;;;;;;5.60;2.30;;;18.10;99.90;;;;;;4920627;29;20544;-85
2022/06/14 00:58:38;;;;;;;4.15;2.08;;;18.00;99.90;;;;;;4934560;29;20153;-85
2022/06/14 01:01:14;;;;;;;3.83;2.13;;;17.90;99.90;;;;;;4916067;29;20464;-85
2022/06/14 01:03:45;;;;;;;5.18;1.90;;;17.90;99.90;;;;;;4933665;29;20038;-85
2022/06/14 01:06:25;;;;;;;2.53;1.85;;;17.90;99.90;;;;;;4933199;29;20540;-86
2022/06/14 01:08:56;;;;;;;2.95;2.08;;;17.80;99.90;;;;;;4933914;29;20079;-86
2022/06/14 01:11:34;;;;;;;2.30;2.10;;;17.90;99.90;;;;;;4932146;29;20118;-85
2022/06/14 01:14:01;;;;;;;4.03;1.70;;;17.70;99.90;;;;;;4934049;29;20047;-85
2022/06/14 01:16:30;;;;;;;4.63;1.90;;;17.60;99.90;;;;;;4933717;29;20075;-85
2022/06/14 01:18:56;;;;;;;3.75;2.10;;;17.70;99.90;;;;;;4934503;29;20102;-85
2022/06/14 01:21:23;;;;;;;2.60;1.90;;;17.50;99.90;;;;;;4932600;29;20127;-86
2022/06/14 01:23:49;;;;;;;3.63;2.17;;;17.60;99.90;;;;;;4934981;29;20504;-85
2022/06/14 01:31:25;;;;;;;3.72;2.42;;;17.40;99.90;;;;;;4991903;23;20065;-81
2022/06/14 01:33:56;;;;;;;2.38;1.80;;;17.20;99.90;;;;;;4954605;29;20039;-81
2022/06/14 01:36:27;;;;;;;2.50;1.67;;;17.30;99.90;;;;;;4954234;28;20035;-81
2022/06/14 01:38:54;;;;;;;3.33;1.80;;;17.30;99.90;;;;;;4953247;28;20035;-81
2022/06/14 01:41:56;;;;;;;2.67;1.95;;;17.30;99.90;;;;;;4954545;29;20023;-81
2022/06/14 01:44:31;;;;;;;5.80;2.05;;;17.10;99.90;;;;;;4942273;29;20035;-81
2022/06/14 01:47:18;;;;;;;2.05;1.83;;;17.20;99.90;;;;;;4954247;29;20023;-81
2022/06/14 01:53:25;;;;;;;2.75;1.70;;;16.90;99.90;;;;;;4938861;28;20101;-81
2022/06/14 01:56:18;;;;;;;4.88;2.00;;;17.00;99.90;;;;;;4953408;29;20098;-81
2022/06/14 01:59:10;;;;;;;2.85;1.90;;;17.10;99.90;;;;;;4952793;29;20038;-81
2022/06/14 02:01:56;;;;;;;3.40;1.90;;;17.00;99.90;;;;;;4951094;28;20032;-81
2022/06/14 02:04:40;;;;;;;2.88;1.70;;;16.90;99.90;;;;;;4955139;29;20042;-81
2022/06/14 02:07:31;;;;;;;4.78;2.10;;;16.90;99.90;;;;;;4954285;28;20051;-81
2022/06/14 02:10:15;;;;;;;5.28;2.00;;;16.90;99.90;;;;;;4952745;29;20045;-81
2022/06/14 02:12:55;;;;;;;2.45;1.90;;;16.80;99.90;;;;;;4952733;29;20155;-80
2022/06/14 02:15:32;;;;;;;3.10;2.03;;;17.00;99.90;;;;;;4948483;29;20084;-82
2022/06/14 02:18:30;;;;;;;4.72;1.80;;;16.90;99.90;;;;;;4953580;29;20370;-81
2022/06/14 02:20:59;;;;;;;4.60;2.00;;;16.60;99.90;;;;;;4953663;29;20055;-81
2022/06/14 02:23:28;;;;;;;2.00;1.60;;;16.70;99.90;;;;;;4953652;29;20031;-81
2022/06/14 02:26:04;;;;;;;2.65;2.00;;;16.70;99.90;;;;;;4935498;29;20031;-81
2022/06/14 02:28:38;;;;;;;2.78;2.03;;;16.40;99.90;;;;;;4951607;29;20038;-81
2022/06/14 02:31:09;;;;;;;2.75;1.63;;;16.50;99.90;;;;;;4954099;29;20381;-81
2022/06/14 02:33:40;;;;;;;2.90;1.83;;;16.40;99.90;;;;;;4953340;29;20499;-81
2022/06/14 02:36:26;;;;;;;3.25;2.00;;;16.60;99.90;;;;;;4953415;29;20131;-81
2022/06/14 02:39:15;;;;;;;5.13;2.10;;;16.20;99.90;;;;;;4952804;29;20035;-81
2022/06/14 02:41:43;;;;;;;2.72;1.83;;;16.30;99.90;;;;;;4952849;29;20114;-81
2022/06/14 02:44:18;;;;;;;4.68;1.75;;;16.40;99.90;;;;;;4953101;29;20026;-81
2022/06/14 02:47:10;;;;;;;3.83;1.65;;;16.20;99.90;;;;;;4952899;28;20038;-81
2022/06/14 02:50:05;;;;;;;3.03;1.75;;;16.20;99.90;;;;;;4926288;28;20384;-81
2022/06/14 02:52:39;;;;;;;2.38;2.00;;;16.20;99.90;;;;;;4951451;29;20031;-81
2022/06/14 02:55:08;;;;;;;3.05;1.80;;;16.20;99.90;;;;;;4954172;28;20492;-81
2022/06/14 02:57:56;;;;;;;2.88;1.85;;;16.20;99.90;;;;;;4953055;29;20082;-81
2022/06/14 03:00:34;;;;;;;4.93;2.00;;;16.00;99.90;;;;;;4952788;29;20135;-80
2022/06/14 03:03:15;;;;;;;4.53;1.90;;;15.80;99.90;;;;;;4951330;28;20032;-81
2022/06/14 03:06:05;;;;;;;3.13;1.95;;;16.00;99.90;;;;;;4953030;29;20554;-81
2022/06/14 03:08:46;;;;;;;6.47;2.50;;;16.10;99.90;;;;;;4952847;29;20039;-81
2022/06/14 03:11:27;;;;;;;4.00;1.98;;;15.90;99.90;;;;;;4939037;29;20019;-81
2022/06/14 03:14:17;;;;;;;4.30;2.20;;;15.90;99.90;;;;;;4952583;28;20091;-81
2022/06/14 03:17:02;;;;;;;3.40;2.10;;;16.00;99.90;;;;;;4950369;28;20085;-81
2022/06/14 03:19:54;;;;;;;5.22;1.88;;;15.90;99.90;;;;;;4950672;29;20028;-81
2022/06/14 03:22:47;;;;;;;2.67;1.80;;;15.80;99.90;;;;;;4953783;29;20031;-81
2022/06/14 03:25:28;;;;;;;3.05;1.80;;;15.90;99.90;;;;;;4952763;29;20046;-81
2022/06/14 03:28:35;;;;;;;1.98;1.75;;;15.80;99.90;;;;;;4951104;28;20487;-81
2022/06/14 03:31:37;;;;;;;4.40;2.13;;;15.90;99.90;;;;;;4951474;29;20059;-81
2022/06/14 03:34:14;;;;;;;3.47;1.73;;;15.90;99.90;;;;;;4936874;29;20121;-81
2022/06/14 03:36:41;;;;;;;2.63;1.80;;;15.90;99.90;;;;;;4952331;29;20054;-80
2022/06/14 03:39:13;;;;;;;4.13;2.05;;;15.80;99.90;;;;;;4952413;29;20082;-81
2022/06/14 03:41:43;;;;;;;3.10;1.98;;;15.80;99.90;;;;;;4952120;28;20042;-81
2022/06/14 03:44:09;;;;;;;3.55;1.83;;;15.70;99.90;;;;;;4949864;28;20031;-81
2022/06/14 03:47:10;;;;;;;2.22;1.85;;;15.60;99.90;;;;;;4953881;29;20046;-81
2022/06/14 03:49:38;;;;;;;4.30;1.88;;;15.60;99.90;;;;;;4857659;29;20052;-81
2022/06/14 03:52:29;;;;;;;2.97;1.85;;;15.70;99.90;;;;;;4846608;29;20150;-81
2022/06/14 03:55:15;;;;;;;2.65;1.95;;;15.60;99.90;;;;;;4846842;29;20125;-80
2022/06/14 03:57:53;;;;;;;2.55;1.70;;;15.70;99.90;;;;;;4846769;29;20380;-81
2022/06/14 04:00:31;;;;;;;5.07;2.00;;;15.70;99.90;;;;;;4847883;29;20495;-81
2022/06/14 04:03:24;;;;;;;2.25;1.70;;;15.70;99.90;;;;;;4846795;29;20086;-81
2022/06/14 04:06:23;;;;;;;3.55;1.80;;;15.60;99.90;;;;;;4830509;29;20037;-81
2022/06/14 04:09:07;;;;;;;3.67;1.90;;;15.80;99.90;;;;;;4813327;29;20049;-81
2022/06/14 04:11:49;;;;;;;5.22;1.90;;;15.50;99.90;;;;;;4821355;29;20039;-80
2022/06/14 04:14:39;;;;;;;3.50;1.95;;;15.50;99.90;;;;;;4820896;29;20554;-81
2022/06/14 04:17:18;;;;;;;2.55;1.83;;;15.50;99.90;;;;;;4820190;29;20044;-81
2022/06/14 04:20:23;;;;;;;2.35;1.73;;;15.50;99.90;;;;;;4820466;29;20148;-81
2022/06/14 04:23:01;;;;;;;3.38;1.80;;;15.50;99.90;;;;;;4820311;29;20046;-81
2022/06/14 04:25:37;;;;;;;2.78;2.00;;;15.60;99.90;;;;;;4829496;29;20103;-81
2022/06/14 04:28:16;;;;;;;3.15;1.98;;;15.50;99.90;;;;;;4894383;29;20459;-81
2022/06/14 04:31:14;;;;;;;4.00;2.15;;;15.60;99.90;;;;;;4896307;29;20131;-81
2022/06/14 04:33:49;;;;;;;3.42;1.90;;;15.50;99.90;;;;;;4888064;29;20076;-81
2022/06/14 04:36:20;;;;;;;3.80;2.00;;;15.60;99.90;;;;;;4896486;29;20076;-81
2022/06/14 04:38:56;;;;;;;3.45;1.95;;;15.50;99.90;;;;;;4896171;29;20123;-81
2022/06/14 04:41:30;;;;;;;4.55;2.30;;;15.50;99.90;;;;;;4896297;29;20278;-81
2022/06/14 04:44:05;;;;;;;2.83;1.90;;;15.60;99.90;;;;;;4895629;29;20037;-81
2022/06/14 04:46:49;;;;;;;5.63;2.25;;;15.70;99.90;;;;;;4947869;29;20452;-81
2022/06/14 04:49:17;;;;;;;3.45;1.77;;;15.80;99.90;;;;;;4956733;29;20027;-81
2022/06/14 04:51:47;;;;;;;7.85;1.88;;;15.80;99.90;;;;;;4955284;29;20046;-81
2022/06/14 04:54:22;;;;;;;4.22;1.95;;;15.80;99.90;;;;;;4937535;29;20594;-81
2022/06/14 04:57:05;;;;;;;3.92;2.03;;;15.90;99.90;;;;;;4955245;29;20510;-81
2022/06/14 04:59:47;;;;;;;4.22;2.15;;;15.90;99.90;;;;;;4955190;29;20027;-81
2022/06/14 05:02:36;;;;;;;2.72;2.00;;;15.90;99.90;;;;;;4941006;28;20031;-81
2022/06/14 05:05:22;;;;;;;4.40;1.95;;;15.90;99.90;;;;;;4929976;29;20035;-81
2022/06/14 05:07:49;;;;;;;3.20;2.00;;;16.00;99.90;;;;;;4953218;29;20123;-81
2022/06/14 05:10:29;;;;;;;2.88;2.00;;;16.10;99.90;;;;;;4955720;29;20449;-81
2022/06/14 05:13:12;;;;;;;5.03;2.20;;;16.10;99.90;;;;;;4954848;29;20068;-81
2022/06/14 05:15:44;;;;;;;5.70;2.42;;;16.20;99.90;;;;;;4954806;29;20082;-81
2022/06/14 05:18:24;;;;;;;2.78;1.90;;;16.00;99.90;;;;;;4953133;28;20046;-81
2022/06/14 05:20:55;;;;;;;2.42;1.92;;;16.10;99.90;;;;;;4954721;28;20063;-81
2022/06/14 05:23:29;;;;;;;3.65;1.92;;;16.10;99.90;;;;;;4954701;29;20094;-81
2022/06/14 05:26:03;;;;;;;3.42;1.98;;;16.20;99.90;;;;;;4954485;29;20083;-81
2022/06/14 05:28:44;;;;;;;5.45;2.05;;;16.30;99.90;;;;;;4951660;29;20082;-81
2022/06/14 05:31:32;;;;;;;5.03;2.03;;;16.40;99.90;;;;;;4956050;29;20043;-81
2022/06/14 05:34:12;;;;;;;2.63;2.00;;;16.50;99.90;;;;;;4951962;29;20046;-81
2022/06/14 05:36:51;;;;;;;4.65;1.90;;;16.70;99.90;;;;;;4953380;28;20083;-81
2022/06/14 05:39:34;;;;;;;3.80;2.00;;;16.60;99.90;;;;;;4953164;29;20427;-81
2022/06/14 05:42:13;;;;;;;5.75;2.30;;;16.70;99.90;;;;;;4953652;29;20107;-81
2022/06/14 05:44:44;;;;;;;5.50;2.45;;;16.80;99.90;;;;;;4944102;29;20024;-81
2022/06/14 05:47:17;;;;;;;6.35;2.03;;;16.90;99.90;;;;;;4954431;29;20034;-81
2022/06/14 05:49:49;;;;;;;4.70;2.22;;;16.90;99.90;;;;;;4954973;29;20514;-81
2022/06/14 05:52:18;;;;;;;6.97;2.47;;;16.70;99.90;;;;;;4954259;29;20414;-81
2022/06/14 05:54:55;;;;;;;4.35;2.50;;;16.80;99.90;;;;;;4953919;29;20039;-81
2022/06/14 05:57:28;;;;;;;4.55;2.58;;;17.00;99.90;;;;;;4952755;29;20417;-81
2022/06/14 06:00:10;;;;;;;7.85;2.75;;;17.10;99.90;;;;;;4953556;28;20023;-81
2022/06/14 06:02:51;;;;;;;5.45;2.92;;;17.20;99.90;;;;;;4953879;29;20090;-81
2022/06/14 06:05:28;;;;;;;4.65;2.45;;;17.30;99.90;;;;;;4953998;29;20118;-81
2022/06/14 06:08:07;;;;;;;6.57;2.85;;;17.40;99.90;;;;;;4953653;29;20497;-81
2022/06/14 06:10:37;;;;;;;6.28;2.53;;;17.60;99.90;;;;;;4952152;29;20466;-81
2022/06/14 06:13:10;;;;;;;8.70;2.88;;;17.60;99.90;;;;;;4952355;28;20063;-82
2022/06/14 06:15:45;;;;;;;6.15;2.83;;;17.60;99.90;;;;;;4953974;29;20079;-85
2022/06/14 06:18:19;;;;;;;7.95;2.80;;;17.60;99.90;;;;;;4936374;29;20347;-82
2022/06/14 06:20:50;;;;;;;9.32;2.80;;;17.90;99.90;;;;;;4953282;29;20027;-82
2022/06/14 06:23:45;;;;;;;6.00;3.50;;;18.00;99.90;;;;;;4952087;28;20019;-82
2022/06/14 06:26:13;;;;;;;6.40;3.15;;;18.00;99.90;;;;;;4859520;29;20053;-82
2022/06/14 06:28:48;;;;;;;6.32;2.88;;;18.00;99.90;;;;;;4861691;29;20037;-82
2022/06/14 06:31:34;;;;;;;8.05;2.67;;;18.20;99.90;;;;;;4861472;29;20633;-81
2022/06/14 06:34:02;;;;;;;4.30;2.70;;;18.20;99.90;;;;;;4862794;29;20071;-80
2022/06/14 06:36:45;;;;;;;4.03;2.67;;;18.30;99.90;;;;;;4860317;29;20101;-81
2022/06/14 06:39:26;;;;;;;7.10;2.80;;;18.40;99.90;;;;;;4866502;29;20029;-81
2022/06/14 06:41:56;;;;;;;9.02;2.90;;;18.50;99.90;;;;;;4862434;29;20466;-81
2022/06/14 06:45:00;;;;;;;6.55;3.03;;;18.60;99.90;;;;;;4860987;29;20042;-81
2022/06/14 06:47:48;;;;;;;4.90;3.00;;;18.60;99.90;;;;;;4812820;29;20042;-81
2022/06/14 06:50:33;;;;;;;7.90;2.80;;;18.70;99.90;;;;;;4808351;29;20042;-81
2022/06/14 06:53:20;;;;;;;8.88;3.20;;;18.60;99.90;;;;;;4827280;29;20093;-81
2022/06/14 06:56:04;;;;;;;8.23;2.80;;;18.70;99.90;;;;;;4836407;29;20115;-81
2022/06/14 06:58:53;;;;;;;5.85;2.90;;;18.80;99.90;;;;;;4832631;29;20109;-81
2022/06/14 07:01:32;;;;;;;5.35;2.45;;;18.80;99.90;;;;;;4826223;29;20129;-81
2022/06/14 07:04:11;;;;;;;5.85;3.13;;;18.80;99.90;;;;;;4889219;29;20044;-80
2022/06/14 07:06:42;;;;;;;6.35;3.20;;;19.00;99.90;;;;;;4892563;29;20104;-81
2022/06/14 07:09:23;;;;;;;7.35;3.38;;;19.00;99.90;;;;;;4893819;29;20135;-81
2022/06/14 07:11:53;;;;;;;4.20;2.92;;;19.00;99.90;;;;;;4893438;29;20024;-81
2022/06/14 07:14:23;;;;;;;12.52;3.20;;;19.10;99.90;;;;;;4892930;29;20039;-81
2022/06/14 07:17:19;;;;;;;7.38;3.50;;;19.20;99.90;;;;;;4893924;29;20029;-81
2022/06/14 07:19:55;;;;;;;5.75;2.97;;;19.30;99.90;;;;;;4892130;29;20035;-81
2022/06/14 07:22:23;;;;;;;5.07;3.00;;;19.30;99.90;;;;;;4947839;29;20046;-80
2022/06/14 07:25:09;;;;;;;6.07;2.53;;;19.20;99.90;;;;;;4952695;29;20031;-81
2022/06/14 07:28:01;;;;;;;6.13;3.10;;;19.30;99.90;;;;;;4952616;29;20042;-81
2022/06/14 07:30:33;;;;;;;5.35;3.20;;;19.20;99.90;;;;;;4951654;28;20066;-81
2022/06/14 07:33:00;;;;;;;5.72;3.33;;;19.20;99.90;;;;;;4952723;29;20024;-81
2022/06/14 07:35:31;;;;;;;4.57;3.25;;;19.30;99.90;;;;;;4952198;29;20038;-81
2022/06/14 07:38:24;;;;;;;8.25;3.70;;;19.40;99.90;;;;;;4952427;29;20031;-81
2022/06/14 07:41:07;;;;;;;9.35;3.20;;;19.40;99.90;;;;;;4951128;29;20024;-81
2022/06/14 07:43:57;;;;;;;6.78;3.63;;;19.50;99.90;;;;;;4949599;29;20027;-81
2022/06/14 07:46:39;;;;;;;6.38;3.35;;;19.40;99.90;;;;;;4953714;29;20093;-81
2022/06/14 07:49:16;;;;;;;9.38;3.65;;;19.60;99.90;;;;;;4952933;29;20082;-81
2022/06/14 07:51:59;;;;;;;5.93;3.50;;;19.60;99.90;;;;;;4952373;29;20055;-81
2022/06/14 07:54:30;;;;;;;7.45;3.35;;;19.70;99.90;;;;;;4952267;29;20038;-81
2022/06/14 07:57:00;;;;;;;8.90;4.63;;;19.90;99.90;;;;;;4952356;28;20054;-81
2022/06/14 07:59:33;;;;;;;6.88;3.60;;;19.90;99.90;;;;;;4949936;28;20029;-81
2022/06/14 08:02:07;;;;;;;5.57;3.40;;;19.90;99.90;;;;;;4951454;29;20032;-81
2022/06/14 08:04:42;;;;;;;6.80;3.35;;;20.10;99.90;;;;;;4950672;28;20031;-82
2022/06/14 08:07:13;;;;;;;7.30;3.13;;;20.20;99.90;;;;;;4953483;28;20027;-81
2022/06/14 08:09:55;;;;;;;3.95;3.00;;;20.40;99.90;;;;;;4952047;29;20041;-81
2022/06/14 08:12:51;;;;;;;5.07;2.75;;;20.60;99.90;;;;;;4952191;29;20035;-81
2022/06/14 08:15:48;;;;;;;5.90;2.97;;;20.70;99.90;;;;;;4950886;28;20082;-81
2022/06/14 08:18:36;;;;;;;6.30;3.53;;;20.50;99.90;;;;;;4948768;28;20079;-81
2022/06/14 08:21:11;;;;;;;5.18;2.88;;;20.60;99.90;;;;;;4952240;29;20035;-81
2022/06/14 08:23:49;;;;;;;6.35;2.65;;;20.70;99.90;;;;;;4952072;29;20027;-81
2022/06/14 08:26:23;;;;;;;3.97;2.72;;;20.80;99.90;;;;;;4952078;29;20027;-81
2022/06/14 08:28:58;;;;;;;7.68;3.10;;;21.00;99.90;;;;;;4951464;28;20039;-81
2022/06/14 08:31:32;;;;;;;6.88;2.50;;;21.00;99.90;;;;;;4952759;29;20079;-81
2022/06/14 08:34:21;;;;;;;6.93;2.67;;;21.20;99.90;;;;;;4950934;29;20058;-81
2022/06/14 08:37:03;;;;;;;7.18;3.28;;;21.40;99.90;;;;;;4940935;29;20052;-81
2022/06/14 08:39:54;;;;;;;9.38;3.35;;;21.40;99.90;;;;;;4952127;29;20101;-81
2022/06/14 08:42:34;;;;;;;4.47;2.45;;;21.50;99.90;;;;;;4934673;29;20395;-81
2022/06/14 08:45:10;;;;;;;5.15;2.80;;;21.60;99.90;;;;;;4951871;29;20480;-81
2022/06/14 08:47:56;;;;;;;4.65;2.80;;;21.60;99.90;;;;;;4951764;29;20083;-81
2022/06/14 08:50:34;;;;;;;5.10;2.40;;;21.60;99.90;;;;;;4939227;29;20498;-81
2022/06/14 08:53:29;;;;;;;4.13;2.90;;;21.60;99.90;;;;;;4951972;29;20164;-82
2022/06/14 08:56:07;;;;;;;9.32;2.50;;;21.60;99.90;;;;;;4951151;29;20036;-81
2022/06/14 08:58:53;;;;;;;4.40;2.75;;;21.80;99.90;;;;;;4950054;29;20034;-82
2022/06/14 09:01:32;;;;;;;7.10;2.95;;;22.10;99.90;;;;;;4952179;29;20114;-81
2022/06/14 09:04:10;;;;;;;7.22;2.58;;;22.10;99.90;;;;;;4949039;28;20028;-81
2022/06/14 09:06:45;;;;;;;7.70;3.08;;;22.30;99.90;;;;;;4951540;29;20034;-82
2022/06/14 09:09:13;;;;;;;7.22;2.70;;;22.30;99.90;;;;;;4951625;29;20031;-81
2022/06/14 09:12:17;;;;;;;5.35;2.65;;;22.30;99.90;;;;;;4952588;28;20534;-81
2022/06/14 09:15:06;;;;;;;5.70;2.47;;;22.40;99.90;;;;;;4954562;29;20067;-82
2022/06/14 09:18:10;;;;;;;9.05;2.65;;;22.40;99.90;;;;;;4860056;29;20118;-81
2022/06/14 09:20:36;;;;;;;8.30;2.78;;;22.40;99.90;;;;;;4860174;29;20040;-82
2022/06/14 09:23:10;;;;;;;3.70;2.40;;;22.60;99.90;;;;;;4845452;29;20041;-82
2022/06/14 09:25:54;;;;;;;9.57;2.78;;;22.80;99.90;;;;;;4857219;29;20034;-81
2022/06/14 09:28:45;;;;;;;3.17;2.38;;;22.80;99.90;;;;;;4855116;29;20041;-82
2022/06/14 09:31:46;;;;;;;6.70;2.50;;;22.90;99.90;;;;;;4859512;29;20072;-81
2022/06/14 09:34:29;;;;;;;7.97;2.80;;;23.00;99.90;;;;;;4858374;29;20068;-81
2022/06/14 09:37:25;;;;;;;6.18;2.25;;;23.20;99.90;;;;;;4849868;29;20050;-81
2022/06/14 09:40:19;;;;;;;3.45;2.30;;;23.30;99.90;;;;;;4849244;29;20049;-82
2022/06/14 09:43:16;;;;;;;5.82;2.63;;;23.30;99.90;;;;;;4841080;29;20053;-82
2022/06/14 09:46:01;;;;;;;8.45;3.22;;;23.60;99.90;;;;;;4848854;29;20038;-83
2022/06/14 09:48:57;;;;;;;6.07;2.40;;;23.70;99.90;;;;;;4853097;29;20456;-81
2022/06/14 09:51:55;;;;;;;6.15;1.98;;;23.90;99.90;;;;;;4853500;29;20078;-82
2022/06/14 09:54:57;;;;;;;4.85;2.40;;;24.00;99.90;;;;;;4889985;28;20035;-81
2022/06/14 09:57:36;;;;;;;7.55;2.67;;;24.20;99.90;;;;;;4954320;28;20031;-82
2022/06/14 10:00:06;;;;;;;6.00;2.30;;;24.10;99.90;;;;;;4953865;29;20043;-81
2022/06/14 10:02:59;;;;;;;6.25;2.53;;;24.10;99.90;;;;;;4952671;28;20027;-81
2022/06/14 10:05:43;;;;;;;4.75;2.55;;;24.30;99.90;;;;;;4946755;28;20388;-82
2022/06/14 10:08:33;;;;;;;3.65;2.70;;;24.30;99.90;;;;;;4939819;29;20055;-82
2022/06/14 10:11:06;;;;;;;5.47;2.90;;;24.50;99.90;;;;;;4954073;29;20059;-82
2022/06/14 10:13:52;;;;;;;4.90;2.60;;;24.40;99.90;;;;;;4951944;29;20066;-82
2022/06/14 10:16:49;;;;;;;3.78;2.42;;;24.40;99.90;;;;;;4953154;28;20098;-80
2022/06/14 10:19:26;;;;;;;4.55;2.60;;;24.40;99.90;;;;;;4952016;28;20480;-80
2022/06/14 10:22:15;;;;;;;4.38;2.35;;;24.30;99.90;;;;;;4953008;29;20507;-82
2022/06/14 10:24:59;;;;;;;5.38;2.50;;;24.40;99.90;;;;;;4952795;29;20400;-81
2022/06/14 10:28:11;;;;;;;4.72;2.50;;;24.40;99.90;;;;;;4952917;29;20118;-81
2022/06/14 10:31:12;;;;;;;4.72;2.72;;;24.30;99.90;;;;;;4943970;28;20409;-88
2022/06/14 10:33:52;;;;;;;4.50;2.00;;;24.40;99.90;;;;;;4946236;29;20519;-88
2022/06/14 10:36:30;;;;;;;3.38;2.47;;;24.50;99.90;;;;;;4953783;29;20043;-90
2022/06/14 10:39:02;;;;;;;4.40;2.00;;;24.60;99.90;;;;;;4928982;29;20512;-84
2022/06/14 10:41:50;;;;;;;4.90;2.25;;;24.70;99.90;;;;;;4953186;29;20035;-88
2022/06/14 10:44:23;;;;;;;3.15;2.13;;;24.90;99.90;;;;;;4939426;29;20035;-81
2022/06/14 10:47:02;;;;;;;3.03;2.10;;;24.90;99.90;;;;;;4951152;29;20031;-81
2022/06/14 10:49:54;;;;;;;4.32;1.95;;;25.30;99.90;;;;;;4954886;29;20400;-86
2022/06/14 10:52:45;;;;;;;2.60;1.80;;;25.20;99.90;;;;;;4936894;29;20170;-85
2022/06/14 10:55:19;;;;;;;3.10;2.30;;;25.20;99.90;;;;;;4953967;28;20039;-82
2022/06/14 10:57:59;;;;;;;4.13;2.20;;;25.40;99.90;;;;;;4952389;29;20034;-83
2022/06/14 11:00:35;;;;;;;3.63;2.25;;;25.40;99.90;;;;;;4950313;29;20031;-85
2022/06/14 11:03:22;;;;;;;3.60;2.00;;;25.40;99.90;;;;;;4951056;28;20027;-86
2022/06/14 11:06:14;;;;;;;3.25;1.88;;;25.80;99.90;;;;;;4935312;29;20028;-84
2022/06/14 11:08:58;;;;;;;2.17;1.80;;;25.70;99.90;;;;;;4951430;28;20035;-89
2022/06/14 11:12:01;;;;;;;2.53;1.70;;;25.60;99.90;;;;;;4952198;29;20058;-82
2022/06/14 11:14:37;;;;;;;3.92;1.88;;;25.70;99.90;;;;;;4859928;29;20048;-82
2022/06/14 11:17:42;;;;;;;3.38;1.60;;;25.60;99.90;;;;;;4842755;29;20121;-82
2022/06/14 11:20:32;;;;;;;2.47;1.80;;;25.90;99.90;;;;;;4857887;29;20034;-83
2022/06/14 11:22:58;;;;;;;1.95;1.65;;;26.00;99.90;;;;;;4857898;29;20119;-82
2022/06/14 11:25:42;;;;;;;3.78;1.70;;;26.10;99.90;;;;;;4861879;29;20051;-83
2022/06/14 11:28:20;;;;;;;1.90;1.70;;;26.50;99.90;;;;;;4861442;29;20037;-82
2022/06/14 11:31:23;;;;;;;4.10;2.00;;;26.50;99.90;;;;;;4861395;29;20148;-83
2022/06/14 11:34:18;;;;;;;4.82;2.00;;;26.70;99.90;;;;;;4861289;29;20041;-81
2022/06/14 11:37:02;;;;;;;5.13;1.80;;;27.00;99.90;;;;;;4860906;29;20068;-81
2022/06/14 11:39:28;;;;;;;2.97;2.00;;;27.40;99.90;;;;;;4861136;29;20041;-80
2022/06/14 11:41:54;;;;;;;6.18;2.20;;;27.50;99.90;;;;;;4860749;29;20029;-81
2022/06/14 11:44:37;;;;;;;3.25;1.83;;;27.70;99.90;;;;;;4858972;29;20491;-81
2022/06/14 11:47:26;;;;;;;4.18;2.10;;;27.70;99.90;;;;;;4850855;29;20128;-81
2022/06/14 11:50:16;;;;;;;3.95;2.03;;;27.80;99.90;;;;;;4870785;29;20033;-81
2022/06/14 11:52:59;;;;;;;3.15;2.30;;;27.90;99.90;;;;;;4949520;28;20039;-82
2022/06/14 11:55:27;;;;;;;4.53;2.35;;;28.10;99.90;;;;;;4953014;29;20043;-83
2022/06/14 11:58:08;;;;;;;3.20;2.20;;;28.50;99.90;;;;;;4951704;29;20500;-83
2022/06/14 12:01:01;;;;;;;3.22;1.92;;;28.60;99.90;;;;;;4951639;29;20041;-83
2022/06/14 12:03:48;;;;;;;3.40;1.92;;;29.00;99.90;;;;;;4950838;29;20027;-83
2022/06/14 12:06:39;;;;;;;2.78;2.00;;;29.20;99.90;;;;;;4951738;28;20027;-81
2022/06/14 12:09:42;;;;;;;4.43;1.92;;;29.60;99.90;;;;;;4944360;29;20057;-83
2022/06/14 12:12:29;;;;;;;2.40;1.80;;;31.30;99.90;;;;;;4952087;29;20065;-83
2022/06/14 12:15:02;;;;;;;4.13;2.10;;;33.30;99.90;;;;;;4934432;28;20035;-83
2022/06/14 12:17:49;;;;;;;4.90;2.60;;;35.00;99.90;;;;;;4952462;28;20521;-83
2022/06/14 12:20:18;;;;;;;7.57;2.20;;;36.30;99.90;;;;;;4938813;29;20460;-81
2022/06/14 12:23:01;;;;;;;4.97;2.47;;;36.70;99.90;;;;;;4950674;28;20114;-81
2022/06/14 12:29:07;;;;;;;2.72;2.05;;;38.20;99.90;;;;;;4953735;29;20083;-81
2022/06/14 12:31:47;;;;;;;3.97;2.05;;;38.80;99.90;;;;;;4857188;29;20061;-81
2022/06/14 12:34:21;;;;;;;5.43;2.45;;;38.50;99.90;;;;;;4844648;29;20053;-81
2022/06/14 12:37:12;;;;;;;7.22;2.25;;;38.10;99.90;;;;;;4847273;29;20092;-83
2022/06/14 12:40:02;;;;;;;5.20;2.30;;;38.00;99.90;;;;;;4846333;29;20080;-81
2022/06/14 12:43:05;;;;;;;3.45;2.05;;;37.80;99.90;;;;;;4845891;29;20046;-81
2022/06/14 12:45:48;;;;;;;4.05;2.30;;;37.90;99.90;;;;;;4846690;29;20044;-81
2022/06/14 12:48:46;;;;;;;3.20;2.22;;;37.70;99.90;;;;;;4849329;29;20054;-81
2022/06/14 12:51:20;;;;;;;5.20;4.25;;;38.10;99.90;;;;;;4849563;29;20060;-81
2022/06/14 12:53:59;;;;;;;4.65;2.90;;;37.00;99.90;;;;;;4849635;29;20126;-81
2022/06/14 12:56:31;;;;;;;4.75;2.20;;;37.20;99.90;;;;;;4848378;29;20097;-82
2022/06/14 12:59:03;;;;;;;4.53;2.25;;;37.50;99.90;;;;;;4845134;29;20033;-81
2022/06/14 13:01:48;;;;;;;2.72;2.10;;;37.80;99.90;;;;;;4846289;29;20046;-81
2022/06/14 13:04:44;;;;;;;5.38;2.15;;;37.60;99.90;;;;;;4855505;29;20034;-81
2022/06/14 13:07:30;;;;;;;3.63;1.95;;;37.40;99.90;;;;;;4896479;29;20130;-81
2022/06/14 13:10:14;;;;;;;3.10;2.10;;;37.10;99.90;;;;;;4953785;29;20138;-82
2022/06/14 13:13:11;;;;;;;4.25;2.10;;;37.40;99.90;;;;;;4954580;29;20078;-82
2022/06/14 13:15:53;;;;;;;4.25;2.38;;;37.40;99.90;;;;;;4953107;29;20047;-81
2022/06/14 13:18:21;;;;;;;5.20;2.08;;;36.70;99.90;;;;;;4949521;29;20043;-81
2022/06/14 13:21:28;;;;;;;6.63;2.03;;;36.40;99.90;;;;;;4955182;29;20035;-81
2022/06/14 13:24:20;;;;;;;4.25;2.78;;;35.90;99.90;;;;;;4954675;29;20030;-81
2022/06/14 13:27:07;;;;;;;4.38;2.35;;;36.10;99.90;;;;;;4944667;29;20030;-81
2022/06/14 13:29:54;;;;;;;7.38;2.17;;;36.80;99.90;;;;;;4954060;29;20050;-81
2022/06/14 13:32:55;;;;;;;3.63;2.40;;;37.00;99.90;;;;;;4950127;29;20039;-81
2022/06/14 13:35:39;;;;;;;3.67;2.47;;;36.60;99.90;;;;;;4924498;28;20118;-82
2022/06/14 13:38:25;;;;;;;4.30;2.00;;;36.90;99.90;;;;;;4939263;29;20028;-81
2022/06/14 13:40:57;;;;;;;3.45;2.22;;;37.50;99.90;;;;;;4951691;28;20079;-82
2022/06/14 13:43:46;;;;;;;4.28;2.35;;;36.80;99.90;;;;;;4956699;29;20035;-81
2022/06/14 13:46:33;;;;;;;3.60;2.13;;;37.60;99.90;;;;;;4956086;29;20335;-81
2022/06/14 13:49:15;;;;;;;3.38;2.25;;;37.00;99.90;;;;;;4953122;28;20039;-81
2022/06/14 13:52:07;;;;;;;4.70;2.50;;;36.80;99.90;;;;;;4954132;29;20031;-81
2022/06/14 13:54:50;;;;;;;3.05;2.10;;;37.30;99.90;;;;;;4953722;28;20571;-82
2022/06/14 13:57:32;;;;;;;6.13;2.10;;;36.40;99.90;;;;;;4953355;28;20046;-81
2022/06/14 14:00:13;;;;;;;5.40;2.55;;;36.40;99.90;;;;;;4953708;29;20043;-81
2022/06/14 14:02:46;;;;;;;3.88;2.22;;;36.60;99.90;;;;;;4952037;28;20031;-82
2022/06/14 14:05:22;;;;;;;3.50;2.00;;;36.70;99.90;;;;;;4953504;28;20035;-81
2022/06/14 14:07:56;;;;;;;4.93;2.40;;;37.10;99.90;;;;;;4954129;29;20082;-82
2022/06/14 14:10:53;;;;;;;5.70;2.20;;;36.90;99.90;;;;;;4953707;28;20546;-82
2022/06/14 14:13:28;;;;;;;6.25;2.63;;;36.60;99.90;;;;;;4954574;29;20102;-81